createdAt,value
2019-05-22T00:02:01.714Z,1.67
2019-05-22T00:04:42.432Z,1.80
2019-05-22T00:07:16.065Z,1.70
2019-05-22T00:09:50.306Z,1.90
2019-05-22T00:12:22.505Z,1.70
2019-05-22T00:14:56.352Z,1.83
2019-05-22T00:17:34.403Z,1.70
2019-05-22T00:20:06.983Z,1.80
2019-05-22T00:22:41.512Z,1.70
2019-05-22T00:25:21.027Z,1.50
2019-05-22T00:27:54.867Z,2.20
2019-05-22T00:30:27.584Z,1.90
2019-05-22T00:33:01.464Z,2.03
2019-05-22T00:35:33.942Z,2.00
2019-05-22T00:38:09.050Z,1.80
2019-05-22T00:40:53.296Z,1.80
2019-05-22T00:43:53.140Z,1.73
2019-05-22T00:46:26.122Z,1.67
2019-05-22T00:48:58.232Z,1.90
2019-05-22T00:51:46.090Z,1.80
2019-05-22T00:54:34.955Z,1.70
2019-05-22T00:57:43.181Z,1.83
2019-05-22T01:00:28.350Z,1.83
2019-05-22T01:03:02.480Z,1.90
2019-05-22T01:05:37.454Z,2.13
2019-05-22T01:08:11.294Z,1.97
2019-05-22T01:10:47.618Z,1.97
2019-05-22T01:13:22.068Z,2.10
2019-05-22T01:15:56.021Z,2.23
2019-05-22T01:18:30.234Z,1.80
2019-05-22T01:21:03.939Z,2.10
2019-05-22T01:23:39.154Z,1.90
2019-05-22T01:26:16.147Z,2.70
2019-05-22T01:28:49.920Z,2.23
2019-05-22T01:31:49.893Z,2.20
2019-05-22T01:34:29.526Z,2.27
2019-05-22T01:37:10.159Z,2.20
2019-05-22T01:40:15.303Z,2.17
2019-05-22T01:42:50.522Z,1.83
2019-05-22T01:45:25.229Z,2.17
2019-05-22T01:48:11.400Z,2.17
2019-05-22T01:50:51.215Z,2.07
2019-05-22T01:53:27.348Z,2.30
2019-05-22T01:55:59.587Z,1.90
2019-05-22T01:58:34.257Z,2.17
2019-05-22T02:01:26.782Z,2.10
2019-05-22T02:03:59.999Z,2.00
2019-05-22T02:06:34.445Z,2.13
2019-05-22T02:09:26.563Z,1.80
2019-05-22T02:12:13.853Z,2.10
2019-05-22T02:14:50.800Z,1.90
2019-05-22T02:17:31.769Z,2.10
2019-05-22T02:20:06.697Z,2.07
2019-05-22T02:22:40.846Z,2.10
2019-05-22T02:25:13.064Z,2.20
2019-05-22T02:27:46.813Z,2.20
2019-05-22T02:30:21.864Z,2.10
2019-05-22T02:32:55.518Z,2.20
2019-05-22T02:35:27.718Z,2.00
2019-05-22T02:38:00.693Z,2.50
2019-05-22T02:40:37.525Z,2.27
2019-05-22T02:43:10.734Z,1.90
2019-05-22T02:45:43.894Z,1.93
2019-05-22T02:48:18.194Z,2.23
2019-05-22T02:50:50.036Z,1.87
2019-05-22T02:53:23.560Z,1.83
2019-05-22T02:55:56.347Z,2.03
2019-05-22T02:58:31.362Z,1.90
2019-05-22T03:01:06.512Z,2.20
2019-05-22T03:03:38.955Z,2.10
2019-05-22T03:06:14.388Z,1.70
2019-05-22T03:09:27.863Z,1.80
2019-05-22T03:12:11.698Z,1.90
2019-05-22T03:14:44.931Z,1.90
2019-05-22T03:17:33.711Z,2.00
2019-05-22T03:20:11.788Z,2.17
2019-05-22T03:23:34.556Z,2.23
2019-05-22T03:26:09.644Z,2.10
2019-05-22T03:28:43.089Z,2.20
2019-05-22T03:31:16.109Z,2.10
2019-05-22T03:33:48.700Z,2.07
2019-05-22T03:36:22.327Z,2.13
2019-05-22T03:38:55.513Z,2.30
2019-05-22T03:41:27.942Z,2.00
2019-05-22T03:44:01.413Z,2.10
2019-05-22T03:46:37.245Z,2.10
2019-05-22T03:49:27.905Z,2.20
2019-05-22T03:51:50.892Z,2.30
2019-05-22T03:54:23.034Z,2.27
2019-05-22T03:56:57.301Z,1.93
2019-05-22T03:59:30.346Z,2.07
2019-05-22T04:02:04.428Z,2.13
2019-05-22T04:04:42.178Z,1.97
2019-05-22T04:07:19.652Z,2.53
2019-05-22T04:09:55.383Z,2.50
2019-05-22T04:12:28.676Z,2.40
2019-05-22T04:15:01.585Z,2.40
2019-05-22T04:17:37.378Z,2.70
2019-05-22T04:20:11.866Z,2.40
2019-05-22T04:22:44.148Z,2.30
2019-05-22T04:25:17.266Z,4.47
2019-05-22T04:27:50.057Z,3.73
2019-05-22T04:30:23.117Z,3.10
2019-05-22T04:32:56.892Z,2.93
2019-05-22T04:35:29.583Z,3.10
2019-05-22T04:38:01.879Z,2.57
2019-05-22T04:40:55.954Z,2.47
2019-05-22T04:43:32.933Z,3.53
2019-05-22T04:46:08.455Z,2.60
2019-05-22T04:48:45.555Z,2.50
2019-05-22T04:51:31.295Z,2.50
2019-05-22T04:54:03.632Z,2.40
2019-05-22T04:56:36.641Z,2.20
2019-05-22T04:59:08.969Z,2.20
2019-05-22T05:01:41.667Z,2.53
2019-05-22T05:04:15.158Z,2.30
2019-05-22T05:06:48.128Z,2.30
2019-05-22T05:09:20.775Z,2.53
2019-05-22T05:11:53.611Z,2.57
2019-05-22T05:14:26.345Z,2.83
2019-05-22T05:16:58.520Z,2.57
2019-05-22T05:19:31.216Z,2.43
2019-05-22T05:22:03.908Z,2.37
2019-05-22T05:24:36.401Z,2.63
2019-05-22T05:27:09.592Z,2.50
2019-05-22T05:29:42.028Z,3.03
2019-05-22T05:32:14.735Z,2.50
2019-05-22T05:35:04.833Z,2.30
2019-05-22T05:37:38.300Z,2.00
2019-05-22T05:40:46.522Z,2.30
2019-05-22T05:43:20.526Z,2.50
2019-05-22T05:45:53.996Z,2.40
2019-05-22T05:48:28.487Z,2.50
2019-05-22T05:51:45.581Z,2.57
2019-05-22T05:54:19.165Z,2.40
2019-05-22T05:56:52.426Z,2.30
2019-05-22T05:59:26.664Z,2.30
2019-05-22T06:02:00.638Z,2.53
2019-05-22T06:04:39.851Z,2.30
2019-05-22T06:07:28.240Z,2.60
2019-05-22T06:10:50.911Z,2.17
2019-05-22T06:13:24.525Z,2.30
2019-05-22T06:17:29.263Z,2.27
2019-05-22T06:33:37.042Z,1.80
2019-05-22T06:36:18.866Z,1.67
2019-05-22T06:39:15.591Z,1.80
2019-05-22T06:41:50.160Z,1.77
2019-05-22T06:44:37.327Z,1.60
2019-05-22T06:47:26.053Z,1.90
2019-05-22T07:02:56.381Z,1.00
2019-05-22T07:05:30.101Z,1.10
2019-05-22T07:08:04.716Z,1.30
2019-05-22T07:10:41.650Z,1.20
2019-05-22T07:13:18.035Z,1.50
2019-05-22T07:15:52.364Z,1.20
2019-05-22T07:18:32.266Z,1.10
2019-05-22T07:21:06.817Z,1.20
2019-05-22T07:23:40.353Z,1.07
2019-05-22T07:26:13.185Z,1.20
2019-05-22T07:28:47.611Z,1.20
2019-05-22T07:31:21.407Z,1.17
2019-05-22T07:33:55.029Z,1.20
2019-05-22T07:36:28.660Z,1.20
2019-05-22T07:39:02.025Z,1.10
2019-05-22T07:41:35.467Z,1.50
2019-05-22T07:44:08.925Z,1.20
2019-05-22T07:46:42.228Z,1.33
2019-05-22T07:49:17.257Z,1.20
2019-05-22T07:51:57.500Z,1.43
2019-05-22T07:54:25.307Z,1.30
2019-05-22T07:56:59.908Z,1.17
2019-05-22T07:59:33.389Z,1.27
2019-05-22T08:02:11.165Z,1.40
2019-05-22T08:04:45.218Z,1.27
2019-05-22T08:07:22.350Z,1.60
2019-05-22T08:09:55.758Z,1.30
2019-05-22T08:12:30.161Z,1.30
2019-05-22T08:15:05.223Z,1.30
2019-05-22T08:17:39.759Z,1.10
2019-05-22T08:20:13.984Z,1.10
2019-05-22T08:22:47.897Z,1.10
2019-05-22T08:25:21.179Z,1.23
2019-05-22T08:27:56.405Z,1.20
2019-05-22T08:30:30.284Z,1.20
2019-05-22T08:33:08.342Z,1.50
2019-05-22T08:35:41.423Z,1.40
2019-05-22T08:38:15.386Z,1.60
2019-05-22T08:40:49.971Z,1.80
2019-05-22T08:43:23.827Z,1.50
2019-05-22T08:45:57.344Z,1.40
2019-05-22T08:48:32.955Z,2.07
2019-05-22T08:51:10.865Z,1.50
2019-05-22T08:53:49.069Z,1.60
2019-05-22T08:56:25.390Z,1.40
2019-05-22T08:58:58.697Z,1.23
2019-05-22T09:01:32.432Z,1.13
2019-05-22T09:04:06.239Z,1.20
2019-05-22T09:06:39.351Z,1.40
2019-05-22T09:09:12.703Z,1.23
2019-05-22T09:11:45.930Z,1.77
2019-05-22T09:14:19.210Z,1.20
2019-05-22T09:16:53.381Z,1.10
2019-05-22T09:19:26.824Z,1.10
2019-05-22T09:22:01.030Z,1.10
2019-05-22T09:24:34.786Z,1.00
2019-05-22T09:27:09.276Z,1.00
2019-05-22T09:29:42.231Z,1.10
2019-05-22T09:32:15.268Z,1.27
2019-05-22T09:34:50.351Z,1.00
2019-05-22T09:37:25.394Z,2.17
2019-05-22T09:39:58.822Z,1.40
2019-05-22T09:42:32.967Z,1.33
2019-05-22T09:45:07.739Z,1.50
2019-05-22T09:47:42.314Z,1.30
2019-05-22T09:50:17.333Z,1.37
2019-05-22T09:52:57.466Z,1.27
2019-05-22T09:55:25.701Z,1.00
2019-05-22T09:57:59.209Z,1.20
2019-05-22T10:00:33.055Z,1.10
2019-05-22T10:03:07.137Z,1.13
2019-05-22T10:05:40.879Z,1.20
2019-05-22T10:08:14.119Z,1.10
2019-05-22T10:10:47.906Z,0.90
2019-05-22T10:13:22.531Z,1.10
2019-05-22T10:15:55.921Z,0.90
2019-05-22T10:18:29.363Z,1.20
2019-05-22T10:21:02.741Z,1.30
2019-05-22T10:23:36.041Z,1.60
2019-05-22T10:26:09.531Z,1.03
2019-05-22T10:28:42.912Z,1.20
2019-05-22T10:31:17.842Z,1.30
2019-05-22T10:33:52.007Z,0.90
2019-05-22T10:36:25.541Z,0.97
2019-05-22T10:38:58.707Z,1.00
2019-05-22T10:41:32.332Z,1.10
2019-05-22T10:44:06.500Z,1.10
2019-05-22T10:46:40.098Z,0.80
2019-05-22T10:49:13.761Z,0.90
2019-05-22T10:51:47.238Z,0.90
2019-05-22T10:54:20.222Z,0.90
2019-05-22T10:56:53.445Z,0.90
2019-05-22T10:59:26.574Z,0.90
2019-05-22T11:01:59.682Z,1.10
2019-05-22T11:04:32.586Z,0.80
2019-05-22T11:07:06.109Z,1.00
2019-05-22T11:09:39.994Z,1.03
2019-05-22T11:12:14.209Z,0.90
2019-05-22T11:14:49.452Z,0.90
2019-05-22T11:17:22.559Z,0.90
2019-05-22T11:19:58.456Z,0.80
2019-05-22T11:22:34.978Z,0.90
2019-05-22T11:25:10.427Z,1.07
2019-05-22T11:27:43.873Z,0.97
2019-05-22T11:30:18.811Z,1.00
2019-05-22T11:32:52.616Z,0.90
2019-05-22T11:35:27.589Z,1.07
2019-05-22T11:38:00.735Z,1.07
2019-05-22T11:40:34.146Z,0.90
2019-05-22T11:43:09.300Z,0.80
2019-05-22T11:45:45.127Z,0.73
2019-05-22T11:48:18.116Z,0.80
2019-05-22T11:50:51.941Z,1.10
2019-05-22T11:53:25.440Z,1.20
2019-05-22T11:55:58.921Z,1.10
2019-05-22T11:58:32.440Z,1.00
2019-05-22T12:01:06.804Z,1.10
2019-05-22T12:03:41.256Z,1.00
2019-05-22T12:06:15.472Z,0.90
2019-05-22T12:08:52.121Z,1.00
2019-05-22T12:11:26.163Z,1.30
2019-05-22T12:13:59.608Z,1.00
2019-05-22T12:16:32.938Z,1.10
2019-05-22T12:19:07.225Z,1.03
2019-05-22T12:21:41.300Z,0.80
2019-05-22T12:24:27.114Z,0.90
2019-05-22T12:26:49.044Z,0.70
2019-05-22T12:29:24.755Z,1.10
2019-05-22T12:31:58.168Z,1.00
2019-05-22T12:34:32.816Z,1.00
2019-05-22T12:37:08.688Z,0.90
2019-05-22T12:39:43.029Z,0.83
2019-05-22T12:42:18.189Z,0.80
2019-05-22T12:44:51.648Z,1.00
2019-05-22T12:47:26.181Z,0.90
2019-05-22T12:49:59.403Z,0.97
2019-05-22T12:52:33.268Z,0.90
2019-05-22T12:55:07.701Z,0.90
2019-05-22T12:57:41.021Z,0.80
2019-05-22T13:00:14.891Z,0.70
2019-05-22T13:02:48.908Z,1.10
2019-05-22T13:14:18.308Z,0.97
2019-05-22T13:16:51.975Z,0.80
2019-05-22T13:19:27.118Z,0.80
2019-05-22T13:22:02.762Z,0.90
2019-05-22T13:24:37.053Z,0.80
2019-05-22T13:27:14.019Z,0.90
2019-05-22T13:29:49.753Z,0.80
2019-05-22T13:32:24.474Z,0.80
2019-05-22T13:34:58.775Z,0.80
2019-05-22T13:37:32.144Z,0.90
2019-05-22T13:40:06.354Z,0.90
2019-05-22T13:42:39.769Z,0.90
2019-05-22T13:45:28.435Z,0.80
2019-05-22T13:47:51.688Z,0.87
2019-05-22T13:50:28.688Z,0.90
2019-05-22T13:53:03.289Z,1.10
2019-05-22T13:55:36.823Z,1.07
2019-05-22T13:58:11.341Z,0.90
2019-05-22T14:00:44.754Z,0.80
2019-05-22T14:03:20.014Z,0.90
2019-05-22T14:05:53.807Z,0.87
2019-05-22T14:08:27.104Z,1.20
2019-05-22T14:11:01.423Z,1.10
2019-05-22T14:13:34.728Z,0.60
2019-05-22T14:16:08.587Z,1.00
2019-05-22T14:18:42.151Z,1.10
2019-05-22T14:21:15.467Z,1.10
2019-05-22T14:23:48.570Z,0.97
2019-05-22T14:26:22.062Z,1.10
2019-05-22T14:28:55.105Z,1.60
2019-05-22T14:31:28.845Z,0.77
2019-05-22T14:34:02.232Z,1.03
2019-05-22T14:36:36.713Z,0.90
2019-05-22T14:39:10.598Z,0.90
2019-05-22T14:41:43.531Z,1.00
2019-05-22T14:44:16.520Z,0.97
2019-05-22T14:46:51.116Z,1.10
2019-05-22T14:49:24.448Z,1.10
2019-05-22T14:51:57.820Z,0.80
2019-05-22T14:54:32.346Z,0.70
2019-05-22T14:57:05.873Z,0.70
2019-05-22T14:59:39.311Z,0.80
2019-05-22T15:02:12.684Z,0.80
2019-05-22T15:04:45.928Z,0.90
2019-05-22T15:07:19.001Z,1.00
2019-05-22T15:09:52.216Z,0.93
2019-05-22T15:12:25.816Z,0.93
2019-05-22T15:14:58.722Z,0.90
2019-05-22T15:17:33.231Z,0.97
2019-05-22T15:20:08.701Z,0.83
2019-05-22T15:22:42.508Z,0.93
2019-05-22T15:25:15.847Z,1.13
2019-05-22T15:27:49.258Z,1.00
2019-05-22T15:30:23.374Z,1.10
2019-05-22T15:32:56.786Z,1.10
2019-05-22T15:35:30.639Z,1.40
2019-05-22T15:38:04.093Z,1.17
2019-05-22T15:40:38.418Z,0.97
2019-05-22T15:43:13.257Z,0.97
2019-05-22T15:45:47.216Z,1.00
2019-05-22T15:48:31.788Z,1.40
2019-05-22T15:51:10.357Z,1.03
2019-05-22T15:53:46.126Z,0.90
2019-05-22T15:56:19.702Z,0.97
2019-05-22T15:58:56.556Z,1.20
2019-05-22T16:01:32.531Z,1.10
2019-05-22T16:04:08.131Z,1.27
2019-05-22T16:06:42.276Z,0.90
2019-05-22T16:09:18.317Z,1.10
2019-05-22T16:11:55.859Z,1.00
2019-05-22T16:14:33.477Z,0.90
2019-05-22T16:17:08.339Z,1.07
2019-05-22T16:19:42.452Z,1.30
2019-05-22T16:22:16.283Z,1.50
2019-05-22T16:24:49.820Z,0.90
2019-05-22T16:27:23.828Z,0.80
2019-05-22T16:29:58.416Z,0.87
2019-05-22T16:32:32.022Z,1.03
2019-05-22T16:35:06.557Z,1.10
2019-05-22T16:37:40.896Z,1.20
2019-05-22T16:40:15.591Z,1.10
2019-05-22T16:42:52.994Z,1.20
2019-05-22T16:45:28.868Z,1.20
2019-05-22T16:48:03.848Z,0.83
2019-05-22T16:50:39.288Z,0.80
2019-05-22T16:53:14.343Z,0.70
2019-05-22T16:55:48.558Z,0.87
2019-05-22T16:58:23.060Z,0.80
2019-05-22T17:00:57.335Z,1.10
2019-05-22T17:03:31.876Z,0.97
2019-05-22T17:06:06.406Z,1.10
2019-05-22T17:08:39.983Z,1.10
2019-05-22T17:11:13.843Z,1.40
2019-05-22T17:13:48.982Z,2.37
2019-05-22T17:16:23.661Z,1.30
2019-05-22T17:18:57.612Z,1.73
2019-05-22T17:21:31.978Z,1.57
2019-05-22T17:24:06.017Z,1.40
2019-05-22T17:26:40.577Z,1.13
2019-05-22T17:29:15.939Z,1.23
2019-05-22T17:31:50.233Z,1.10
2019-05-22T17:34:34.004Z,5.00
2019-05-22T17:37:14.551Z,2.50
2019-05-22T17:39:51.239Z,1.20
2019-05-22T17:42:28.422Z,1.57
2019-05-22T17:45:04.696Z,1.30
2019-05-22T17:47:38.267Z,1.60
2019-05-22T17:50:26.082Z,1.80
2019-05-22T17:52:49.782Z,2.03
2019-05-22T17:55:25.419Z,2.40
2019-05-22T17:57:58.971Z,1.83
2019-05-22T18:00:40.233Z,1.33
2019-05-22T18:03:14.806Z,1.80
2019-05-22T18:05:49.005Z,1.87
2019-05-22T18:08:23.612Z,1.67
2019-05-22T18:10:58.140Z,1.33
2019-05-22T18:13:31.811Z,1.60
2019-05-22T18:16:05.813Z,1.40
2019-05-22T18:18:39.172Z,1.20
2019-05-22T18:21:12.610Z,1.10
2019-05-22T18:23:45.900Z,0.97
2019-05-22T18:26:19.503Z,0.90
2019-05-22T18:28:52.879Z,0.90
2019-05-22T18:31:26.429Z,0.90
2019-05-22T18:33:59.864Z,0.87
2019-05-22T18:36:33.642Z,0.80
2019-05-22T18:39:08.045Z,0.83
2019-05-22T18:41:41.646Z,1.10
2019-05-22T18:44:15.327Z,0.87
2019-05-22T18:46:48.717Z,1.00
2019-05-22T18:49:22.145Z,1.80
2019-05-22T18:51:55.607Z,1.73
2019-05-22T18:54:28.642Z,1.70
2019-05-22T18:57:01.987Z,1.60
2019-05-22T18:59:35.176Z,1.33
2019-05-22T19:02:10.090Z,0.90
2019-05-22T19:04:43.387Z,1.10
2019-05-22T19:07:16.744Z,1.00
2019-05-22T19:09:49.988Z,1.30
2019-05-22T19:12:23.544Z,1.20
2019-05-22T19:14:57.010Z,1.20
2019-05-22T19:17:31.187Z,1.20
2019-05-22T19:20:05.403Z,1.20
2019-05-22T19:22:40.038Z,1.50
2019-05-22T19:25:13.527Z,1.20
2019-05-22T19:27:47.050Z,1.13
2019-05-22T19:30:35.406Z,1.70
2019-05-22T19:33:48.502Z,1.70
2019-05-22T19:36:25.555Z,1.10
2019-05-22T19:39:13.074Z,1.27
2019-05-22T19:42:01.358Z,1.20
2019-05-22T19:44:24.807Z,1.20
2019-05-22T19:46:58.212Z,1.30
2019-05-22T19:49:33.385Z,1.20
2019-05-22T19:52:07.703Z,1.00
2019-05-22T19:54:43.546Z,1.40
2019-05-22T19:57:17.506Z,1.20
2019-05-22T19:59:50.671Z,1.10
2019-05-22T20:02:24.350Z,1.37
2019-05-22T20:05:02.053Z,1.10
2019-05-22T20:07:39.572Z,1.00
2019-05-22T20:10:28.228Z,1.30
2019-05-22T20:13:01.869Z,1.20
2019-05-22T20:15:35.419Z,1.30
2019-05-22T20:18:11.420Z,1.10
2019-05-22T20:20:45.427Z,1.20
2019-05-22T20:23:34.541Z,1.30
2019-05-22T20:25:54.651Z,1.30
2019-05-22T20:28:28.622Z,1.10
2019-05-22T20:31:02.282Z,1.00
2019-05-22T20:33:36.649Z,1.20
2019-05-22T20:36:11.144Z,1.30
2019-05-22T20:38:45.621Z,1.10
2019-05-22T20:41:19.365Z,1.27
2019-05-22T20:43:53.138Z,1.30
2019-05-22T20:46:26.740Z,1.20
2019-05-22T20:49:01.094Z,1.00
2019-05-22T20:51:35.171Z,1.20
2019-05-22T20:54:08.345Z,1.23
2019-05-22T20:56:44.327Z,1.10
2019-05-22T20:59:18.652Z,1.13
2019-05-22T21:01:52.114Z,1.10
2019-05-22T21:04:27.585Z,1.20
2019-05-22T21:07:06.657Z,1.17
2019-05-22T21:09:40.858Z,1.30
2019-05-22T21:12:17.508Z,1.20
2019-05-22T21:14:50.763Z,1.10
2019-05-22T21:17:24.672Z,1.10
2019-05-22T21:19:59.101Z,1.30
2019-05-22T21:22:32.464Z,1.20
2019-05-22T21:25:07.337Z,1.20
2019-05-22T21:27:42.405Z,1.30
2019-05-22T21:30:17.228Z,1.20
2019-05-22T21:32:50.553Z,1.20
2019-05-22T21:35:24.877Z,1.07
2019-05-22T21:38:00.273Z,1.20
2019-05-22T21:40:34.072Z,1.40
2019-05-22T21:43:08.748Z,1.20
2019-05-22T21:45:43.570Z,1.20
2019-05-22T21:48:18.381Z,1.20
2019-05-22T21:50:51.888Z,1.30
2019-05-22T21:53:26.344Z,1.20
2019-05-22T21:56:04.640Z,1.10
2019-05-22T21:58:35.282Z,1.20
2019-05-22T22:01:18.339Z,1.20
2019-05-22T22:03:59.304Z,1.07
2019-05-22T22:06:33.458Z,1.10
2019-05-22T22:09:07.911Z,1.20
2019-05-22T22:11:41.777Z,1.30
2019-05-22T22:14:16.406Z,1.40
2019-05-22T22:16:50.484Z,1.20
2019-05-22T22:19:24.016Z,1.37
2019-05-22T22:21:57.321Z,1.20
2019-05-22T22:24:30.718Z,1.40
2019-05-22T22:27:04.289Z,1.33
2019-05-22T22:29:37.818Z,1.20
2019-05-22T22:32:13.478Z,1.13
2019-05-22T22:34:51.588Z,1.50
2019-05-22T22:37:24.921Z,1.40
2019-05-22T22:40:00.427Z,1.30
2019-05-22T22:42:37.022Z,1.57
2019-05-22T22:45:19.230Z,1.27
2019-05-22T22:47:54.346Z,1.40
2019-05-22T22:50:29.020Z,1.47
2019-05-22T22:53:04.191Z,1.53
2019-05-22T22:55:40.338Z,1.70
2019-05-22T22:58:17.579Z,1.80
2019-05-22T23:00:52.693Z,1.40
2019-05-22T23:03:30.289Z,1.47
2019-05-22T23:06:03.946Z,1.67
2019-05-22T23:08:38.183Z,1.63
2019-05-22T23:11:12.400Z,1.43
2019-05-22T23:13:46.335Z,1.77
2019-05-22T23:16:21.214Z,1.60
2019-05-22T23:19:37.753Z,1.90
2019-05-22T23:22:10.502Z,1.70
2019-05-22T23:24:44.693Z,1.83
2019-05-22T23:27:18.054Z,1.87
2019-05-22T23:29:51.229Z,1.80
2019-05-22T23:32:24.340Z,1.77
2019-05-22T23:34:59.747Z,1.90
2019-05-22T23:37:33.057Z,1.80
2019-05-22T23:40:09.074Z,2.10
2019-05-22T23:42:44.582Z,1.90
2019-05-22T23:45:22.277Z,1.87
2019-05-22T23:48:17.039Z,2.00
2019-05-22T23:50:50.484Z,1.77
2019-05-22T23:53:25.335Z,1.90
2019-05-22T23:55:58.963Z,1.90
2019-05-22T23:58:32.916Z,2.00
